createdAt,value
2017-09-13T00:00:23.990Z,1.70
2017-09-13T00:01:31.194Z,1.58
2017-09-13T00:02:38.340Z,1.67
2017-09-13T00:03:44.878Z,2.10
2017-09-13T00:04:51.700Z,2.03
2017-09-13T00:05:57.855Z,1.98
2017-09-13T00:07:05.665Z,1.90
2017-09-13T00:08:12.443Z,1.77
2017-09-13T00:09:18.966Z,1.73
2017-09-13T00:10:26.393Z,1.75
2017-09-13T00:11:32.506Z,1.58
2017-09-13T00:12:38.796Z,2.67
2017-09-13T00:13:46.254Z,1.70
2017-09-13T00:14:52.846Z,1.75
2017-09-13T00:15:59.197Z,1.83
2017-09-13T00:17:05.441Z,1.70
2017-09-13T00:18:12.355Z,1.90
2017-09-13T00:19:18.548Z,1.73
2017-09-13T00:20:25.453Z,1.92
2017-09-13T00:21:31.576Z,2.03
2017-09-13T00:22:37.960Z,1.90
2017-09-13T00:23:44.725Z,1.92
2017-09-13T00:24:51.009Z,2.20
2017-09-13T00:25:58.052Z,1.95
2017-09-13T00:27:04.871Z,1.98
2017-09-13T00:28:11.482Z,2.20
2017-09-13T00:29:17.896Z,1.92
2017-09-13T00:30:24.415Z,2.20
2017-09-13T00:31:30.654Z,1.85
2017-09-13T00:32:36.961Z,1.83
2017-09-13T00:33:43.346Z,1.83
2017-09-13T00:34:49.630Z,1.92
2017-09-13T00:35:56.017Z,1.90
2017-09-13T00:37:03.110Z,2.00
2017-09-13T00:38:09.720Z,1.65
2017-09-13T00:39:15.946Z,3.62
2017-09-13T00:40:22.042Z,2.30
2017-09-13T00:41:28.651Z,2.00
2017-09-13T00:42:34.916Z,1.77
2017-09-13T00:43:41.263Z,2.30
2017-09-13T00:44:47.484Z,1.98
2017-09-13T00:45:53.817Z,1.62
2017-09-13T00:47:01.324Z,1.75
2017-09-13T00:48:07.252Z,2.47
2017-09-13T00:49:15.785Z,2.22
2017-09-13T00:50:22.038Z,1.90
2017-09-13T00:51:28.095Z,2.60
2017-09-13T00:52:34.500Z,2.50
2017-09-13T00:53:40.562Z,2.42
2017-09-13T00:54:45.928Z,2.00
2017-09-13T00:55:52.239Z,2.00
2017-09-13T00:56:58.967Z,2.22
2017-09-13T00:58:05.384Z,2.05
2017-09-13T00:59:12.163Z,1.80
2017-09-13T01:00:18.626Z,2.05
2017-09-13T01:01:25.245Z,2.00
2017-09-13T01:02:31.687Z,2.10
2017-09-13T01:03:38.244Z,2.30
2017-09-13T01:04:44.681Z,2.10
2017-09-13T01:05:50.765Z,2.35
2017-09-13T01:06:57.431Z,1.80
2017-09-13T01:08:04.480Z,1.95
2017-09-13T01:09:10.967Z,1.70
2017-09-13T01:10:17.270Z,2.08
2017-09-13T01:11:24.399Z,1.95
2017-09-13T01:12:30.803Z,2.40
2017-09-13T01:13:37.698Z,1.80
2017-09-13T01:14:44.311Z,2.37
2017-09-13T01:15:50.899Z,2.50
2017-09-13T01:16:57.274Z,2.37
2017-09-13T01:18:03.812Z,2.62
2017-09-13T01:19:10.141Z,1.90
2017-09-13T01:20:16.878Z,2.00
2017-09-13T01:21:23.151Z,2.05
2017-09-13T01:22:29.872Z,2.17
2017-09-13T01:23:36.086Z,2.30
2017-09-13T01:24:42.659Z,1.90
2017-09-13T01:25:49.015Z,2.05
2017-09-13T01:26:55.341Z,2.20
2017-09-13T01:28:01.667Z,2.70
2017-09-13T01:29:07.700Z,2.55
2017-09-13T01:30:14.014Z,2.40
2017-09-13T01:31:20.207Z,2.72
2017-09-13T01:32:26.581Z,2.90
2017-09-13T01:33:33.113Z,3.95
2017-09-13T01:34:39.599Z,2.30
2017-09-13T01:35:45.993Z,2.65
2017-09-13T01:36:52.142Z,2.55
2017-09-13T01:37:58.550Z,2.72
2017-09-13T01:39:04.039Z,2.78
2017-09-13T01:40:10.354Z,2.45
2017-09-13T01:41:16.762Z,3.50
2017-09-13T01:42:23.091Z,2.35
2017-09-13T01:43:29.263Z,2.25
2017-09-13T01:44:35.598Z,2.72
2017-09-13T01:45:41.917Z,2.60
2017-09-13T01:46:48.331Z,2.90
2017-09-13T01:48:00.653Z,2.40
2017-09-13T01:49:07.092Z,2.78
2017-09-13T01:50:13.710Z,3.08
2017-09-13T01:51:20.021Z,2.58
2017-09-13T01:52:26.541Z,2.80
2017-09-13T01:53:33.666Z,2.95
2017-09-13T01:54:40.909Z,3.17
2017-09-13T01:55:47.838Z,2.78
2017-09-13T01:56:54.137Z,3.03
2017-09-13T01:58:00.552Z,3.33
2017-09-13T01:59:06.727Z,2.75
2017-09-13T02:00:13.272Z,3.30
2017-09-13T02:01:19.788Z,2.67
2017-09-13T02:02:26.088Z,3.55
2017-09-13T02:03:32.336Z,2.72
2017-09-13T02:04:38.729Z,3.25
2017-09-13T02:05:45.145Z,2.70
2017-09-13T02:06:51.576Z,2.87
2017-09-13T02:07:58.289Z,3.35
2017-09-13T02:09:04.059Z,3.47
2017-09-13T02:10:11.365Z,4.62
2017-09-13T02:11:17.632Z,4.15
2017-09-13T02:12:24.007Z,3.80
2017-09-13T02:13:30.727Z,4.82
2017-09-13T02:14:37.016Z,4.05
2017-09-13T02:15:43.262Z,5.18
2017-09-13T02:16:50.924Z,4.95
2017-09-13T02:17:58.948Z,6.05
2017-09-13T02:19:05.481Z,4.93
2017-09-13T02:20:11.987Z,5.07
2017-09-13T02:21:18.219Z,5.03
2017-09-13T02:22:24.626Z,5.18
2017-09-13T02:23:31.046Z,5.05
2017-09-13T02:24:37.450Z,5.18
2017-09-13T02:25:44.288Z,5.30
2017-09-13T02:26:50.620Z,5.22
2017-09-13T02:27:57.194Z,5.55
2017-09-13T02:29:03.541Z,5.68
2017-09-13T02:30:09.943Z,4.60
2017-09-13T02:31:16.355Z,6.10
2017-09-13T02:32:22.567Z,5.60
2017-09-13T02:33:28.789Z,6.15
2017-09-13T02:34:35.286Z,5.95
2017-09-13T02:35:41.915Z,5.47
2017-09-13T02:36:48.222Z,6.82
2017-09-13T02:37:54.550Z,6.12
2017-09-13T02:39:01.667Z,6.87
2017-09-13T02:40:08.046Z,6.15
2017-09-13T02:41:15.208Z,7.30
2017-09-13T02:42:21.639Z,7.07
2017-09-13T02:43:28.181Z,7.15
2017-09-13T02:44:34.967Z,6.50
2017-09-13T02:45:41.493Z,7.75
2017-09-13T02:46:48.007Z,6.82
2017-09-13T02:47:54.622Z,7.22
2017-09-13T02:49:00.830Z,7.43
2017-09-13T02:50:07.120Z,6.15
2017-09-13T02:51:13.498Z,7.50
2017-09-13T02:52:20.047Z,6.40
2017-09-13T02:53:26.318Z,7.72
2017-09-13T02:54:32.488Z,6.50
2017-09-13T02:55:39.935Z,6.93
2017-09-13T02:56:46.220Z,6.47
2017-09-13T02:57:53.571Z,6.45
2017-09-13T02:59:00.175Z,6.40
2017-09-13T03:00:06.665Z,5.60
2017-09-13T03:01:12.922Z,6.18
2017-09-13T03:02:20.973Z,5.78
2017-09-13T03:03:27.759Z,5.47
2017-09-13T03:04:36.359Z,5.70
2017-09-13T03:05:42.448Z,4.50
2017-09-13T03:06:48.881Z,5.18
2017-09-13T03:07:55.263Z,4.30
2017-09-13T03:09:01.304Z,3.78
2017-09-13T03:10:08.854Z,3.85
2017-09-13T03:11:15.672Z,3.95
2017-09-13T03:12:21.997Z,3.28
2017-09-13T03:13:28.500Z,3.85
2017-09-13T03:14:34.983Z,3.60
2017-09-13T03:15:41.427Z,4.20
2017-09-13T03:16:47.947Z,3.37
2017-09-13T03:17:54.367Z,3.42
2017-09-13T03:19:00.662Z,3.60
2017-09-13T03:20:07.033Z,3.25
2017-09-13T03:21:13.346Z,3.50
2017-09-13T03:22:19.610Z,3.10
2017-09-13T03:23:26.100Z,3.00
2017-09-13T03:24:32.522Z,3.45
2017-09-13T03:25:39.140Z,3.15
2017-09-13T03:26:45.683Z,3.20
2017-09-13T03:27:52.077Z,3.20
2017-09-13T03:28:59.509Z,3.60
2017-09-13T03:30:05.622Z,3.42
2017-09-13T03:31:11.832Z,3.20
2017-09-13T03:32:18.158Z,3.17
2017-09-13T03:33:24.927Z,3.12
2017-09-13T03:34:31.727Z,3.10
2017-09-13T03:35:38.078Z,3.17
2017-09-13T03:36:44.431Z,3.20
2017-09-13T03:37:50.933Z,2.72
2017-09-13T03:38:58.730Z,3.72
2017-09-13T03:40:06.283Z,3.20
2017-09-13T03:41:12.937Z,3.60
2017-09-13T03:42:19.420Z,3.40
2017-09-13T03:43:26.698Z,3.10
2017-09-13T03:44:33.920Z,3.30
2017-09-13T03:45:40.515Z,4.05
2017-09-13T03:46:47.129Z,3.15
2017-09-13T03:47:53.572Z,3.30
2017-09-13T03:48:59.860Z,3.10
2017-09-13T03:50:06.912Z,3.05
2017-09-13T03:51:13.243Z,3.22
2017-09-13T03:52:19.549Z,2.60
2017-09-13T03:53:26.032Z,2.92
2017-09-13T03:54:32.881Z,3.60
2017-09-13T03:55:39.295Z,3.30
2017-09-13T03:56:46.113Z,3.00
2017-09-13T03:57:52.492Z,3.05
2017-09-13T04:00:55.289Z,3.33
2017-09-13T04:02:01.832Z,3.00
2017-09-13T04:03:08.567Z,3.20
2017-09-13T04:04:15.970Z,3.28
2017-09-13T04:05:23.496Z,3.40
2017-09-13T04:06:29.874Z,3.05
2017-09-13T04:07:36.859Z,4.12
2017-09-13T04:08:43.880Z,3.25
2017-09-13T04:09:50.804Z,2.72
2017-09-13T04:10:57.864Z,2.95
2017-09-13T04:12:05.934Z,3.95
2017-09-13T04:13:12.886Z,3.47
2017-09-13T04:14:19.543Z,3.50
2017-09-13T04:15:26.907Z,3.20
2017-09-13T04:16:34.443Z,3.50
2017-09-13T04:17:42.029Z,4.05
2017-09-13T04:18:50.796Z,3.90
2017-09-13T04:20:00.268Z,3.72
2017-09-13T04:21:08.424Z,4.00
2017-09-13T04:22:15.920Z,4.00
2017-09-13T04:23:24.456Z,3.33
2017-09-13T04:24:32.706Z,3.08
2017-09-13T04:25:40.449Z,3.00
2017-09-13T04:26:47.904Z,2.65
2017-09-13T04:27:56.386Z,3.40
2017-09-13T04:29:04.213Z,2.92
2017-09-13T04:30:14.213Z,2.92
2017-09-13T04:32:02.281Z,3.10
2017-09-13T04:36:03.946Z,3.28
2017-09-13T04:37:13.065Z,2.42
2017-09-13T04:38:21.291Z,3.25
2017-09-13T04:39:31.035Z,2.70
2017-09-13T04:40:40.068Z,2.62
2017-09-13T04:41:50.021Z,3.03
2017-09-13T04:43:00.099Z,2.75
2017-09-13T04:44:10.183Z,3.25
2017-09-13T04:45:18.447Z,2.70
2017-09-13T04:46:27.135Z,2.47
2017-09-13T04:47:36.122Z,2.60
2017-09-13T04:48:45.913Z,2.75
2017-09-13T04:49:55.037Z,3.70
2017-09-13T04:51:06.240Z,2.50
2017-09-13T04:52:16.673Z,2.87
2017-09-13T04:53:26.347Z,3.85
2017-09-13T04:56:10.915Z,3.67
2017-09-13T04:57:20.066Z,3.00
2017-09-13T04:58:30.312Z,2.75
2017-09-13T04:59:38.071Z,3.00
2017-09-13T05:00:46.962Z,3.10
2017-09-13T05:01:56.509Z,3.10
2017-09-13T05:03:04.934Z,2.90
2017-09-13T05:04:14.977Z,2.95
2017-09-13T05:05:23.922Z,2.05
2017-09-13T05:06:33.006Z,3.08
2017-09-13T05:07:42.940Z,2.90
2017-09-13T05:08:51.021Z,2.90
2017-09-13T05:10:00.014Z,2.70
2017-09-13T05:11:08.969Z,2.92
2017-09-13T05:12:17.193Z,2.90
2017-09-13T05:13:25.965Z,2.83
2017-09-13T05:14:35.006Z,2.80
2017-09-13T05:15:45.324Z,3.08
2017-09-13T05:16:54.328Z,3.10
2017-09-13T05:18:02.933Z,2.75
2017-09-13T05:19:11.134Z,2.90
2017-09-13T05:20:20.336Z,3.30
2017-09-13T05:21:29.356Z,3.20
2017-09-13T05:22:38.921Z,3.20
2017-09-13T05:23:47.869Z,3.37
2017-09-13T05:24:56.719Z,2.87
2017-09-13T05:26:05.960Z,2.85
2017-09-13T05:27:15.971Z,3.25
2017-09-13T05:28:28.213Z,2.85
2017-09-13T05:29:38.206Z,3.30
2017-09-13T05:30:46.344Z,2.80
2017-09-13T05:31:55.972Z,2.90
2017-09-13T05:33:04.953Z,3.53
2017-09-13T05:34:15.993Z,2.90
2017-09-13T05:35:25.955Z,3.10
2017-09-13T05:36:35.978Z,2.95
2017-09-13T05:37:46.012Z,2.90
2017-09-13T05:38:55.997Z,2.45
2017-09-13T05:40:05.842Z,2.55
2017-09-13T05:41:13.917Z,2.75
2017-09-13T05:42:22.995Z,3.15
2017-09-13T05:43:32.908Z,3.70
2017-09-13T05:44:41.263Z,3.45
2017-09-13T05:45:49.866Z,3.22
2017-09-13T05:46:58.937Z,3.03
2017-09-13T05:48:07.907Z,3.65
2017-09-13T05:49:17.826Z,2.80
2017-09-13T05:50:26.042Z,2.60
2017-09-13T05:51:34.989Z,2.35
2017-09-13T05:52:44.811Z,3.30
2017-09-13T05:53:53.298Z,2.58
2017-09-13T05:55:02.949Z,2.75
2017-09-13T05:56:12.987Z,2.65
2017-09-13T05:57:22.798Z,3.10
2017-09-13T05:58:53.014Z,2.42
2017-09-13T06:03:44.100Z,2.70
2017-09-13T06:04:52.924Z,2.12
2017-09-13T06:06:01.981Z,2.75
2017-09-13T06:07:12.033Z,2.72
2017-09-13T06:08:21.846Z,2.85
2017-09-13T06:09:31.885Z,3.20
2017-09-13T06:10:42.929Z,2.67
2017-09-13T06:11:53.011Z,3.12
2017-09-13T06:13:02.976Z,2.50
2017-09-13T06:14:12.056Z,3.80
2017-09-13T06:15:22.955Z,6.10
2017-09-13T06:16:31.786Z,5.95
2017-09-13T06:17:40.984Z,4.43
2017-09-13T06:18:49.849Z,5.28
2017-09-13T06:19:58.655Z,4.00
2017-09-13T06:21:07.135Z,3.22
2017-09-13T06:22:15.112Z,3.50
2017-09-13T06:23:24.844Z,3.70
2017-09-13T06:24:35.978Z,3.42
2017-09-13T06:25:44.905Z,3.37
2017-09-13T06:26:54.792Z,3.50
2017-09-13T06:28:03.642Z,2.72
2017-09-13T06:29:13.880Z,2.60
2017-09-13T06:30:25.042Z,2.80
2017-09-13T06:31:34.727Z,3.12
2017-09-13T06:32:43.808Z,3.03
2017-09-13T06:33:53.771Z,3.42
2017-09-13T06:35:02.709Z,2.75
2017-09-13T06:36:11.775Z,2.65
2017-09-13T06:37:20.840Z,3.67
2017-09-13T06:38:29.738Z,3.30
2017-09-13T06:39:38.754Z,3.20
2017-09-13T06:40:47.025Z,3.00
2017-09-13T06:41:55.934Z,3.60
2017-09-13T06:43:05.994Z,2.65
2017-09-13T06:44:14.847Z,2.55
2017-09-13T06:45:23.923Z,2.53
2017-09-13T06:46:31.769Z,2.40
2017-09-13T06:47:40.803Z,3.22
2017-09-13T06:48:51.679Z,2.97
2017-09-13T06:50:00.915Z,3.90
2017-09-13T06:51:10.822Z,4.45
2017-09-13T06:52:19.939Z,3.40
2017-09-13T06:53:28.759Z,3.30
2017-09-13T06:54:37.716Z,4.50
2017-09-13T06:55:46.979Z,5.00
2017-09-13T06:56:55.742Z,4.72
2017-09-13T06:58:05.276Z,4.40
2017-09-13T06:59:15.921Z,4.60
2017-09-13T07:00:24.788Z,4.43
2017-09-13T07:01:33.838Z,4.00
2017-09-13T07:02:42.795Z,3.60
2017-09-13T07:03:51.852Z,4.60
2017-09-13T07:05:00.765Z,3.53
2017-09-13T07:06:11.779Z,3.55
2017-09-13T07:07:20.886Z,3.70
2017-09-13T07:08:28.893Z,3.75
2017-09-13T07:09:38.801Z,3.37
2017-09-13T07:10:47.857Z,3.03
2017-09-13T07:11:57.882Z,3.85
2017-09-13T07:13:07.863Z,4.07
2017-09-13T07:14:18.644Z,2.97
2017-09-13T07:15:27.825Z,3.33
2017-09-13T07:16:36.878Z,3.58
2017-09-13T07:17:45.751Z,4.10
2017-09-13T07:18:55.759Z,3.35
2017-09-13T07:20:04.330Z,3.70
2017-09-13T07:21:12.796Z,3.47
2017-09-13T07:22:22.703Z,3.20
2017-09-13T07:23:32.773Z,4.07
2017-09-13T07:24:43.843Z,4.32
2017-09-13T07:25:53.735Z,3.60
2017-09-13T07:27:02.280Z,3.97
2017-09-13T07:28:10.770Z,3.97
2017-09-13T07:29:20.332Z,3.40
2017-09-13T07:30:29.791Z,3.40
2017-09-13T07:31:38.872Z,3.70
2017-09-13T07:32:47.811Z,3.30
2017-09-13T07:33:57.691Z,3.60
2017-09-13T07:35:07.008Z,3.40
2017-09-13T07:36:16.759Z,2.92
2017-09-13T07:37:25.746Z,3.08
2017-09-13T07:38:36.662Z,2.70
2017-09-13T07:39:45.745Z,2.53
2017-09-13T07:40:55.052Z,2.95
2017-09-13T07:42:03.829Z,2.85
2017-09-13T07:43:13.817Z,2.92
2017-09-13T07:44:23.738Z,2.53
2017-09-13T07:45:34.828Z,3.47
2017-09-13T07:46:44.712Z,2.45
2017-09-13T07:47:53.729Z,2.53
2017-09-13T07:49:03.716Z,2.55
2017-09-13T07:50:12.751Z,2.78
2017-09-13T07:51:23.669Z,2.42
2017-09-13T07:52:34.904Z,2.62
2017-09-13T07:53:45.621Z,2.40
2017-09-13T07:54:53.595Z,2.70
2017-09-13T07:56:02.726Z,2.22
2017-09-13T07:57:12.035Z,2.50
2017-09-13T07:58:20.960Z,2.55
2017-09-13T07:59:29.638Z,2.90
2017-09-13T08:00:39.744Z,1.92
2017-09-13T08:01:49.648Z,2.12
2017-09-13T08:02:59.731Z,2.10
2017-09-13T08:04:09.770Z,2.28
2017-09-13T08:05:19.703Z,2.20
2017-09-13T08:06:30.683Z,3.22
2017-09-13T08:07:40.623Z,2.83
2017-09-13T08:08:49.704Z,2.62
2017-09-13T08:09:59.558Z,2.67
2017-09-13T08:11:08.715Z,2.42
2017-09-13T08:12:17.709Z,2.35
2017-09-13T08:13:26.853Z,2.70
2017-09-13T08:14:35.683Z,2.40
2017-09-13T08:15:44.698Z,2.40
2017-09-13T08:16:55.587Z,2.85
2017-09-13T08:18:04.685Z,2.72
2017-09-13T08:19:13.661Z,1.98
2017-09-13T08:20:23.914Z,2.40
2017-09-13T08:21:33.707Z,2.55
2017-09-13T08:22:43.654Z,3.20
2017-09-13T08:23:52.291Z,2.28
2017-09-13T08:25:01.642Z,2.10
2017-09-13T08:26:11.728Z,2.03
2017-09-13T08:27:21.650Z,1.77
2017-09-13T08:28:31.498Z,2.00
2017-09-13T08:29:40.590Z,1.48
2017-09-13T08:30:48.519Z,1.98
2017-09-13T08:31:57.553Z,1.27
2017-09-13T08:33:07.549Z,1.42
2017-09-13T08:34:17.584Z,1.20
2017-09-13T08:35:25.800Z,1.10
2017-09-13T08:36:34.366Z,1.02
2017-09-13T08:37:43.831Z,1.30
2017-09-13T08:38:53.567Z,1.17
2017-09-13T08:40:03.785Z,1.30
2017-09-13T08:41:12.608Z,1.20
2017-09-13T08:42:22.602Z,1.20
2017-09-13T08:43:32.531Z,1.50
2017-09-13T08:44:42.413Z,1.00
2017-09-13T08:45:51.554Z,1.67
2017-09-13T08:47:02.687Z,1.55
2017-09-13T08:48:12.611Z,1.33
2017-09-13T08:49:23.506Z,1.77
2017-09-13T08:50:32.565Z,1.10
2017-09-13T08:51:42.548Z,1.30
2017-09-13T08:52:52.454Z,1.50
2017-09-13T08:54:00.112Z,1.15
2017-09-13T08:55:08.494Z,1.40
2017-09-13T08:56:17.899Z,1.10
2017-09-13T08:57:26.358Z,1.00
2017-09-13T08:58:35.416Z,0.95
2017-09-13T08:59:43.458Z,2.35
2017-09-13T09:00:52.547Z,1.10
2017-09-13T09:02:01.685Z,1.02
2017-09-13T09:03:10.633Z,1.02
2017-09-13T09:04:19.507Z,1.05
2017-09-13T09:05:28.458Z,1.37
2017-09-13T09:06:37.463Z,1.30
2017-09-13T09:07:46.449Z,1.15
2017-09-13T09:08:55.401Z,0.90
2017-09-13T09:10:03.437Z,1.10
2017-09-13T09:11:13.383Z,1.17
2017-09-13T09:12:22.415Z,1.10
2017-09-13T09:13:31.526Z,0.90
2017-09-13T09:14:40.565Z,0.93
2017-09-13T09:15:49.479Z,1.12
2017-09-13T09:16:59.136Z,0.82
2017-09-13T09:18:08.539Z,1.00
2017-09-13T09:19:17.754Z,0.90
2017-09-13T09:20:25.841Z,0.70
2017-09-13T09:21:34.467Z,0.68
2017-09-13T09:22:43.590Z,0.90
2017-09-13T09:23:54.430Z,1.00
2017-09-13T09:25:03.364Z,0.82
2017-09-13T09:26:15.456Z,0.80
2017-09-13T09:27:25.341Z,0.80
2017-09-13T09:28:33.498Z,0.80
2017-09-13T09:29:42.358Z,0.77
2017-09-13T09:30:51.874Z,0.82
2017-09-13T09:32:01.051Z,1.02
2017-09-13T09:33:10.942Z,0.98
2017-09-13T09:34:21.413Z,0.70
2017-09-13T09:35:30.366Z,0.80
2017-09-13T09:36:39.344Z,0.60
2017-09-13T09:37:48.463Z,0.80
2017-09-13T09:38:57.618Z,1.50
2017-09-13T09:40:06.118Z,0.70
2017-09-13T09:41:14.624Z,0.70
2017-09-13T09:42:24.371Z,1.10
2017-09-13T09:43:33.016Z,0.77
2017-09-13T09:44:41.547Z,0.80
2017-09-13T09:45:50.728Z,0.73
2017-09-13T09:46:58.830Z,1.75
2017-09-13T09:48:06.661Z,0.88
2017-09-13T09:49:15.416Z,0.70
2017-09-13T09:50:24.450Z,0.70
2017-09-13T09:51:33.393Z,0.90
2017-09-13T09:52:43.508Z,0.80
2017-09-13T09:53:51.571Z,0.82
2017-09-13T09:55:00.373Z,0.60
2017-09-13T09:56:10.369Z,0.57
2017-09-13T09:57:19.235Z,0.75
2017-09-13T09:58:29.487Z,0.65
2017-09-13T09:59:39.356Z,0.60
2017-09-13T10:00:48.245Z,0.60
2017-09-13T10:01:57.439Z,0.88
2017-09-13T10:03:06.457Z,0.68
2017-09-13T10:04:16.700Z,0.68
2017-09-13T10:05:26.493Z,0.60
2017-09-13T10:06:34.590Z,0.60
2017-09-13T10:07:42.635Z,0.75
2017-09-13T10:08:51.519Z,0.80
2017-09-13T10:10:01.234Z,0.57
2017-09-13T10:11:10.316Z,0.52
2017-09-13T10:12:19.382Z,0.62
2017-09-13T10:13:28.419Z,0.65
2017-09-13T10:14:37.767Z,0.50
2017-09-13T10:17:59.406Z,0.70
2017-09-13T10:19:08.263Z,0.57
2017-09-13T10:20:17.468Z,0.73
2017-09-13T10:21:26.330Z,0.70
2017-09-13T10:22:36.230Z,0.73
2017-09-13T10:23:44.482Z,0.50
2017-09-13T10:24:53.569Z,0.50
2017-09-13T10:26:02.259Z,0.70
2017-09-13T10:27:11.409Z,0.52
2017-09-13T10:28:21.530Z,0.70
2017-09-13T10:29:30.316Z,0.70
2017-09-13T10:30:38.213Z,0.80
2017-09-13T10:31:46.477Z,0.98
2017-09-13T10:32:57.429Z,0.57
2017-09-13T10:34:07.340Z,0.57
2017-09-13T10:35:19.402Z,0.80
2017-09-13T10:36:28.205Z,0.68
2017-09-13T10:37:37.618Z,0.52
2017-09-13T10:38:46.572Z,1.00
2017-09-13T10:39:54.405Z,1.25
2017-09-13T10:41:03.269Z,0.65
2017-09-13T10:42:13.424Z,0.70
2017-09-13T10:43:23.355Z,0.70
2017-09-13T10:44:31.327Z,0.60
2017-09-13T10:45:40.486Z,0.77
2017-09-13T10:46:50.263Z,0.55
2017-09-13T10:47:59.267Z,0.82
2017-09-13T10:49:08.588Z,0.73
2017-09-13T10:50:18.935Z,0.70
2017-09-13T10:51:29.432Z,0.60
2017-09-13T10:52:39.420Z,0.65
2017-09-13T10:53:48.445Z,0.80
2017-09-13T10:54:57.146Z,0.70
2017-09-13T10:56:06.287Z,0.60
2017-09-13T10:57:17.173Z,0.60
2017-09-13T10:58:27.505Z,0.40
2017-09-13T10:59:36.231Z,0.57
2017-09-13T11:00:46.225Z,0.80
2017-09-13T11:01:56.242Z,0.65
2017-09-13T11:03:06.247Z,0.90
2017-09-13T11:04:16.202Z,0.70
2017-09-13T11:05:25.084Z,0.80
2017-09-13T11:06:34.243Z,0.82
2017-09-13T11:07:44.182Z,0.85
2017-09-13T11:08:54.227Z,0.70
2017-09-13T11:10:04.338Z,0.80
2017-09-13T11:11:13.936Z,2.35
2017-09-13T11:12:23.145Z,0.60
2017-09-13T11:13:32.263Z,0.70
2017-09-13T11:14:40.978Z,0.50
2017-09-13T11:15:49.450Z,0.80
2017-09-13T11:16:59.248Z,0.62
2017-09-13T11:18:08.067Z,0.52
2017-09-13T11:19:17.791Z,0.60
2017-09-13T11:20:27.285Z,0.70
2017-09-13T11:21:37.174Z,0.70
2017-09-13T11:22:47.193Z,0.60
2017-09-13T11:23:57.364Z,0.60
2017-09-13T11:25:06.496Z,0.52
2017-09-13T11:26:14.959Z,0.50
2017-09-13T11:27:22.531Z,0.60
2017-09-13T11:28:31.464Z,0.60
2017-09-13T11:29:40.059Z,0.70
2017-09-13T11:30:48.198Z,0.60
2017-09-13T11:31:57.049Z,0.90
2017-09-13T11:33:04.566Z,0.50
